Time;durP1;ratioP1;P1;durP2;ratioP2;P2;SDS_P1;SDS_P2;PMS_P1;PMS_P2;Temp;Humidity;BMP_temperature;BMP_pressure;BME280_temperature;BME280_humidity;BME280_pressure;Samples;Min_cycle;Max_cycle;Signal;HPM_P1;HPM_P2
2022/11/11 00:00:34;;;;;;;1999.90;999.90;;;;;;;5.14;100.00;95549.63;5017075;28;20223;-55
2022/11/11 00:02:59;;;;;;;1999.90;999.90;;;;;;;5.11;100.00;95563.88;5017927;28;20274;-55
2022/11/11 00:05:26;;;;;;;1999.90;999.90;;;;;;;5.11;100.00;95555.75;5017232;28;20619;-57
2022/11/11 00:07:52;;;;;;;1999.90;999.90;;;;;;;5.08;100.00;95548.34;5017025;28;20172;-58
2022/11/11 00:10:18;;;;;;;1999.90;999.90;;;;;;;5.09;100.00;95536.38;5017326;28;20168;-59
2022/11/11 00:12:43;;;;;;;1999.90;999.90;;;;;;;5.07;100.00;95538.69;5017027;28;20560;-59
2022/11/11 00:15:09;;;;;;;1999.90;999.90;;;;;;;5.04;100.00;95534.00;5017539;28;20183;-58
2022/11/11 00:25:53;;;;;;;1999.90;999.90;;;;;;;5.05;100.00;95530.91;5018297;28;20174;-60
2022/11/11 00:28:19;;;;;;;1999.90;999.90;;;;;;;5.05;100.00;95524.72;5017323;28;20659;-60
2022/11/11 00:30:44;;;;;;;1999.90;999.90;;;;;;;5.05;100.00;95530.13;5017018;28;20179;-60
2022/11/11 00:33:10;;;;;;;1999.90;999.90;;;;;;;5.04;100.00;95539.41;5016458;28;20261;-60
2022/11/11 00:35:54;;;;;;;1999.90;999.90;;;;;;;5.02;100.00;95541.69;5016637;28;20544;-60
2022/11/11 00:41:03;;;;;;;1999.90;999.90;;;;;;;4.94;100.00;95545.44;5018060;28;20283;-60
2022/11/11 00:43:28;;;;;;;1999.90;999.90;;;;;;;4.89;100.00;95543.84;5016947;28;20199;-68
2022/11/11 00:50:57;;;;;;;1999.90;999.90;;;;;;;4.90;100.00;95550.00;5016639;28;20518;-69
2022/11/11 00:51:24;;;;;;;1999.90;999.90;;;;;;;4.84;100.00;95562.28;5017530;28;20194;-69
2022/11/11 00:53:49;;;;;;;1999.90;999.90;;;;;;;4.81;100.00;95566.47;5016656;28;20560;-68
2022/11/11 00:56:14;;;;;;;1999.90;999.90;;;;;;;4.75;100.00;95559.03;5016962;28;20306;-68
2022/11/11 00:58:40;;;;;;;1999.90;999.90;;;;;;;4.77;100.00;95554.06;5016339;28;20266;-60
2022/11/11 01:01:05;;;;;;;1999.90;999.90;;;;;;;4.74;100.00;95560.19;5016177;28;20564;-60
2022/11/11 01:03:30;;;;;;;1999.90;999.90;;;;;;;4.73;100.00;95555.94;5016010;28;20186;-60
2022/11/11 01:05:59;;;;;;;1999.90;999.90;;;;;;;4.66;100.00;95566.63;5016100;28;20182;-60
2022/11/11 01:08:25;;;;;;;1999.90;999.90;;;;;;;4.65;100.00;95565.03;5015923;28;20175;-60
2022/11/11 01:10:50;;;;;;;1999.90;999.90;;;;;;;4.62;100.00;95571.19;5017001;28;20182;-60
2022/11/11 01:13:31;;;;;;;1999.90;999.90;;;;;;;4.62;100.00;95571.19;5015908;28;20233;-60
2022/11/11 01:15:59;;;;;;;1999.90;999.90;;;;;;;4.59;100.00;95572.66;5016167;28;20274;-56
2022/11/11 01:18:26;;;;;;;1999.90;999.90;;;;;;;4.60;100.00;95576.16;5015975;28;20179;-58
2022/11/11 01:21:16;;;;;;;1999.90;999.90;;;;;;;4.59;100.00;95574.63;5015745;28;20178;-57
2022/11/11 01:23:44;;;;;;;1999.90;999.90;;;;;;;4.56;100.00;95584.22;5010975;28;20206;-57
2022/11/11 01:26:24;;;;;;;1999.90;999.90;;;;;;;4.55;100.00;95592.69;5016470;28;20210;-59
2022/11/11 01:28:51;;;;;;;1999.90;999.90;;;;;;;4.55;100.00;95598.88;5015339;28;20183;-58
2022/11/11 01:31:19;;;;;;;1999.90;999.90;;;;;;;4.55;100.00;95592.69;5015317;28;20716;-58
2022/11/11 01:33:45;;;;;;;1999.90;999.90;;;;;;;4.54;100.00;95593.81;5015650;28;20672;-59
2022/11/11 01:36:16;;;;;;;1999.90;999.90;;;;;;;4.50;100.00;95590.28;5015634;28;20183;-60
2022/11/11 01:38:42;;;;;;;1999.90;999.90;;;;;;;4.52;100.00;95588.00;5015169;28;20271;-68
2022/11/11 01:43:55;;;;;;;1999.90;999.90;;;;;;;4.48;100.00;95600.69;5016639;28;20258;-68
2022/11/11 01:46:27;;;;;;;1999.90;999.90;;;;;;;4.46;100.00;95602.94;5015148;28;20211;-68
2022/11/11 01:49:19;;;;;;;1999.90;999.90;;;;;;;4.47;100.00;95602.59;5015036;28;20629;-68
2022/11/11 01:51:49;;;;;;;1999.90;999.90;;;;;;;4.43;100.00;95600.97;5015808;28;20179;-60
2022/11/11 01:54:25;;;;;;;1999.90;999.90;;;;;;;4.40;100.00;95597.06;5015303;28;20163;-60
2022/11/11 01:56:58;;;;;;;1999.90;999.90;;;;;;;4.42;100.00;95599.41;5015722;28;20261;-60
2022/11/11 01:59:24;;;;;;;1999.90;999.90;;;;;;;4.40;100.00;95601.69;5015499;28;20249;-60
2022/11/11 02:01:49;;;;;;;1999.90;999.90;;;;;;;4.40;100.00;95612.50;5015055;28;20160;-60
2022/11/11 02:07:05;;;;;;;1999.90;999.90;;;;;;;4.35;100.00;95610.88;5016287;28;20198;-60
2022/11/11 02:09:30;;;;;;;1999.90;999.90;;;;;;;4.35;100.00;95604.69;5014961;28;20633;-60
2022/11/11 02:14:47;;;;;;;1999.90;999.90;;;;;;;4.28;100.00;95607.25;5016159;28;20191;-67
2022/11/11 02:17:15;;;;;;;1999.90;999.90;;;;;;;4.26;100.00;95612.25;5015367;28;20186;-67
2022/11/11 02:19:57;;;;;;;1999.90;999.90;;;;;;;4.23;100.00;95615.66;5014541;28;20186;-67
2022/11/11 02:23:01;;;;;;;1999.90;999.90;;;;;;;4.21;100.00;95623.31;5014969;28;20194;-68
2022/11/11 02:25:29;;;;;;;1999.90;999.90;;;;;;;4.12;100.00;95628.16;5014781;28;20232;-69
2022/11/11 02:28:00;;;;;;;1999.90;999.90;;;;;;;4.07;100.00;95641.97;5014605;28;20258;-68
2022/11/11 02:30:26;;;;;;;1999.90;999.90;;;;;;;4.09;100.00;95639.69;5014393;28;20171;-58
2022/11/11 02:32:52;;;;;;;1999.90;999.90;;;;;;;4.08;100.00;95646.22;5014337;28;20574;-59
2022/11/11 02:35:30;;;;;;;1999.90;999.90;;;;;;;4.08;100.00;95644.28;5014605;28;20171;-58
2022/11/11 02:37:56;;;;;;;1999.90;999.90;;;;;;;4.07;100.00;95641.97;5014513;28;20174;-58
2022/11/11 02:43:42;;;;;;;1999.90;999.90;;;;;;;4.00;100.00;95663.44;4993034;28;20217;-57
2022/11/11 02:46:07;;;;;;;1999.90;999.90;;;;;;;4.00;100.00;95674.25;5014586;28;20206;-58
2022/11/11 02:48:33;;;;;;;1999.90;999.90;;;;;;;3.98;100.00;95671.09;5014513;28;20262;-60
2022/11/11 02:50:58;;;;;;;1999.90;999.90;;;;;;;3.96;100.00;95673.38;5014698;28;20176;-61
2022/11/11 02:53:24;;;;;;;1999.90;999.90;;;;;;;3.92;100.00;95672.50;5014089;28;20199;-62
2022/11/11 02:55:49;;;;;;;1999.90;999.90;;;;;;;3.94;100.00;95670.25;5013807;28;20167;-61
2022/11/11 02:58:15;;;;;;;1999.90;999.90;;;;;;;3.94;100.00;95672.94;5014224;28;20180;-60
2022/11/11 03:00:41;;;;;;;1999.90;999.90;;;;;;;3.90;100.00;95680.19;5014105;28;20219;-60
2022/11/11 03:03:07;;;;;;;1999.90;999.90;;;;;;;3.85;100.00;95681.25;5014232;28;20190;-60
2022/11/11 03:05:32;;;;;;;1999.90;999.90;;;;;;;3.88;100.00;95687.84;5013836;28;20225;-60
2022/11/11 03:07:57;;;;;;;1999.90;999.90;;;;;;;3.88;100.00;95688.66;5014542;28;20171;-56
2022/11/11 03:10:23;;;;;;;1999.90;999.90;;;;;;;3.84;100.00;95693.19;5014571;28;20178;-60
2022/11/11 03:12:48;;;;;;;1999.90;999.90;;;;;;;3.83;100.00;95693.53;5013935;28;20206;-60
2022/11/11 03:15:13;;;;;;;1999.90;999.90;;;;;;;3.80;100.00;95707.75;5013780;28;20171;-61
2022/11/11 03:17:39;;;;;;;1999.90;999.90;;;;;;;3.80;100.00;95718.53;5013894;28;20172;-61
2022/11/11 03:23:04;;;;;;;1999.90;999.90;;;;;;;3.80;100.00;95735.53;5015164;28;20221;-60
2022/11/11 03:25:37;;;;;;;1999.90;999.90;;;;;;;3.79;100.00;95727.78;5013707;28;20182;-60
2022/11/11 03:28:07;;;;;;;1999.90;999.90;;;;;;;3.81;100.00;95736.31;5014395;28;20179;-60
2022/11/11 03:30:32;;;;;;;1999.90;999.90;;;;;;;3.80;100.00;95734.75;5013774;28;20179;-60
2022/11/11 03:33:01;;;;;;;1999.90;999.90;;;;;;;3.75;100.00;95740.44;5013482;28;20289;-60
2022/11/11 03:35:27;;;;;;;1999.90;999.90;;;;;;;3.78;100.00;95742.44;5013560;28;20175;-61
2022/11/11 03:40:37;;;;;;;1999.90;999.90;;;;;;;3.78;100.00;95742.44;5014992;28;20206;-61
2022/11/11 03:43:03;;;;;;;1999.90;999.90;;;;;;;3.77;100.00;95738.16;5013854;28;20175;-60
2022/11/11 03:45:28;;;;;;;1999.90;999.90;;;;;;;3.77;100.00;95733.53;5014332;28;20603;-60
2022/11/11 03:47:54;;;;;;;1999.90;999.90;;;;;;;3.80;100.00;95734.75;5013687;28;20317;-60
2022/11/11 03:50:20;;;;;;;1999.90;999.90;;;;;;;3.82;100.00;95724.38;5013403;28;20538;-60
2022/11/11 03:52:46;;;;;;;1999.90;999.90;;;;;;;3.78;100.00;95727.00;5013482;28;20214;-60
2022/11/11 03:55:11;;;;;;;1999.90;999.90;;;;;;;3.76;100.00;95733.88;5014206;28;20533;-61
2022/11/11 03:57:45;;;;;;;1999.90;999.90;;;;;;;3.73;100.00;95734.59;5013494;28;20186;-60
2022/11/11 04:00:12;;;;;;;1999.90;999.90;;;;;;;3.67;100.00;95736.78;5013656;28;20699;-61
2022/11/11 04:10:55;;;;;;;1999.90;999.90;;;;;;;3.77;100.00;95719.25;5014687;28;20589;-57
2022/11/11 04:16:07;;;;;;;1999.90;999.90;;;;;;;3.67;100.00;95730.59;5014747;28;20628;-58
2022/11/11 04:24:02;;;;;;;1999.90;999.90;;;;;;;3.52;100.00;95718.69;5014578;28;20230;-60
2022/11/11 04:26:27;;;;;;;1999.90;999.90;;;;;;;3.45;100.00;95705.81;5015166;28;20222;-61
2022/11/11 04:32:34;;;;;;;1999.90;999.90;;;;;;;3.31;100.00;95707.38;5017907;28;20170;-60
2022/11/11 04:34:22;;;;;;;1999.90;999.90;;;;;;;3.25;100.00;95704.16;5018151;28;20167;-60
2022/11/11 04:36:47;;;;;;;1999.90;999.90;;;;;;;3.14;100.00;95708.50;5017157;28;20618;-62
2022/11/11 04:41:57;;;;;;;1999.90;999.90;;;;;;;3.17;100.00;95698.94;5017982;28;20263;-50
2022/11/11 04:47:06;;;;;;;1999.90;999.90;;;;;;;3.21;100.00;95697.88;5017872;28;20512;-52
2022/11/11 04:49:31;;;;;;;1999.90;999.90;;;;;;;3.21;100.00;95705.97;5016694;28;20176;-54
2022/11/11 04:56:46;;;;;;;1999.90;999.90;;;;;;;3.23;100.00;95717.22;5017345;28;20218;-54
2022/11/11 04:57:26;;;;;;;1999.90;999.90;;;;;;;3.23;100.00;95722.63;5017402;28;20207;-57
2022/11/11 04:59:51;;;;;;;1999.90;999.90;;;;;;;3.23;100.00;95717.22;5016135;28;20218;-59
2022/11/11 05:05:01;;;;;;;1999.90;999.90;;;;;;;3.26;100.00;95738.13;5017461;28;20290;-62
2022/11/11 05:10:10;;;;;;;1999.90;999.90;;;;;;;3.18;100.00;95747.13;5017617;28;20255;-60
2022/11/11 05:12:35;;;;;;;1999.90;999.90;;;;;;;3.13;100.00;95752.78;5015915;28;20297;-60
2022/11/11 05:25:23;;;;;;;1999.90;999.90;;;;;;;2.96;100.00;95779.31;5017325;28;20635;-61
2022/11/11 05:26:08;;;;;;;1999.90;999.90;;;;;;;2.88;100.00;95775.63;5016989;28;20159;-60
2022/11/11 05:28:33;;;;;;;1999.90;999.90;;;;;;;2.88;100.00;95791.03;5015826;28;20175;-61
2022/11/11 05:30:58;;;;;;;1999.90;999.90;;;;;;;2.88;100.00;95786.41;5015454;28;20266;-60
2022/11/11 05:33:23;;;;;;;1999.90;999.90;;;;;;;2.88;100.00;95786.41;5015743;28;20575;-58
2022/11/11 05:35:49;;;;;;;1999.90;999.90;;;;;;;2.92;100.00;95784.59;5015446;28;20183;-67
2022/11/11 05:38:20;;;;;;;1999.90;999.90;;;;;;;2.95;100.00;95789.31;5014768;28;20237;-67
2022/11/11 05:40:46;;;;;;;1999.90;999.90;;;;;;;3.00;100.00;95783.69;5015955;28;20172;-68
2022/11/11 05:43:11;;;;;;;1999.90;999.90;;;;;;;3.05;100.00;95778.03;5015625;28;20278;-60
2022/11/11 05:45:36;;;;;;;1999.90;999.90;;;;;;;3.13;100.00;95773.59;5015400;28;20294;-60
2022/11/11 05:48:02;;;;;;;1999.90;999.90;;;;;;;3.22;100.00;95758.81;5015382;28;20221;-67
2022/11/11 05:50:27;;;;;;;1999.90;999.90;;;;;;;3.25;100.00;95768.91;5015185;28;20210;-69
2022/11/11 05:52:55;;;;;;;1999.90;999.90;;;;;;;3.30;100.00;95765.97;5015387;28;20207;-60
2022/11/11 05:55:20;;;;;;;1999.90;999.90;;;;;;;3.32;100.00;95771.78;5015231;28;20185;-56
2022/11/11 05:57:46;;;;;;;1999.90;999.90;;;;;;;3.34;100.00;95772.22;5015128;28;20175;-57
2022/11/11 06:00:11;;;;;;;1999.90;999.90;;;;;;;3.36;100.00;95775.34;5015514;28;20281;-52
2022/11/11 06:02:37;;;;;;;1999.90;999.90;;;;;;;3.35;100.00;95784.59;5015110;28;20270;-52
2022/11/11 06:05:03;;;;;;;1999.90;999.90;;;;;;;3.31;100.00;95794.50;5015105;28;20267;-56
2022/11/11 06:07:28;;;;;;;1999.90;999.90;;;;;;;3.30;100.00;95792.94;5014864;28;20203;-57
2022/11/11 06:10:29;;;;;;;1999.90;999.90;;;;;;;3.33;100.00;95803.06;5014818;28;20175;-58
2022/11/11 06:15:44;;;;;;;1999.90;999.90;;;;;;;3.38;100.00;95813.59;5016272;28;20162;-57
2022/11/11 06:18:09;;;;;;;1999.90;999.90;;;;;;;3.39;100.00;95823.25;5015546;28;20198;-57
2022/11/11 06:20:35;;;;;;;1999.90;999.90;;;;;;;3.46;100.00;95830.72;5015328;28;20221;-57
2022/11/11 06:23:02;;;;;;;1999.90;999.90;;;;;;;3.51;100.00;95836.66;5014987;28;20238;-57
2022/11/11 06:28:14;;;;;;;1999.90;999.90;;;;;;;3.64;100.00;95855.50;5015650;28;20171;-61
2022/11/11 06:30:40;;;;;;;1999.90;999.90;;;;;;;3.73;100.00;95848.78;5014588;28;20594;-62
2022/11/11 06:33:06;;;;;;;1999.90;999.90;;;;;;;3.90;100.00;95858.47;5014493;28;20203;-58
2022/11/11 06:35:33;;;;;;;1999.90;999.90;;;;;;;4.17;100.00;95860.25;5014440;28;20641;-59
2022/11/11 06:37:58;;;;;;;1999.90;999.90;;;;;;;4.52;100.00;95869.19;5015049;28;20179;-58
2022/11/11 06:40:24;;;;;;;1999.90;999.90;;;;;;;5.02;100.00;95877.22;5014319;28;20178;-59
2022/11/11 06:42:49;;;;;;;1999.90;999.90;;;;;;;5.57;100.00;95907.34;5014462;28;20176;-58
2022/11/11 06:45:14;;;;;;;1999.90;999.90;;;;;;;6.16;100.00;95972.72;5015076;28;20181;-61
2022/11/11 06:47:41;;;;;;;1999.90;999.90;;;;;;;6.44;100.00;96106.16;5014424;28;20184;-62
2022/11/11 06:50:07;;;;;;;1999.90;999.90;;;;;;;6.64;100.00;96212.72;5013789;28;20174;-60
2022/11/11 06:52:32;;;;;;;1999.90;999.90;;;;;;;6.56;100.00;96324.97;5013877;28;20268;-60
2022/11/11 06:54:58;;;;;;;1999.90;999.90;;;;;;;6.30;100.00;96419.66;5014366;28;20178;-60
2022/11/11 06:57:23;;;;;;;1999.90;999.90;;;;;;;6.18;100.00;96492.97;5014713;28;20176;-60
2022/11/11 06:59:48;;;;;;;1999.90;999.90;;;;;;;6.03;100.00;96528.97;5013538;28;20247;-60
2022/11/11 07:02:14;;;;;;;1999.90;999.90;;;;;;;5.86;100.00;96561.78;5014167;28;20185;-58
2022/11/11 07:04:39;;;;;;;1999.90;999.90;;;;;;;5.79;100.00;96584.03;5013668;28;20197;-56
2022/11/11 07:07:05;;;;;;;1999.90;999.90;;;;;;;5.74;100.00;96607.88;5013985;28;20183;-58
2022/11/11 07:09:30;;;;;;;1999.90;999.90;;;;;;;5.81;100.00;96614.34;5013699;28;20184;-58
2022/11/11 07:11:55;;;;;;;1999.90;999.90;;;;;;;5.87;100.00;96620.31;5014384;28;20193;-57
2022/11/11 07:14:20;;;;;;;1999.90;999.90;;;;;;;5.88;100.00;96630.00;5014677;28;20187;-58
2022/11/11 07:16:46;;;;;;;1999.90;999.90;;;;;;;5.96;100.00;96631.78;5014032;28;20569;-58
2022/11/11 07:19:11;;;;;;;1999.90;999.90;;;;;;;6.09;100.00;96633.34;5013767;28;20618;-58
2022/11/11 07:21:36;;;;;;;1999.90;999.90;;;;;;;6.21;100.00;96644.16;5014559;28;20208;-58
2022/11/11 07:24:02;;;;;;;1999.90;999.90;;;;;;;6.38;100.00;96649.28;5013925;28;20200;-61
2022/11/11 07:26:27;;;;;;;1999.90;999.90;;;;;;;6.58;100.00;96659.16;5013910;28;20660;-63
2022/11/11 07:28:53;;;;;;;1999.90;999.90;;;;;;;6.70;100.00;96670.72;5013969;28;20637;-63
2022/11/11 07:31:18;;;;;;;1999.90;999.90;;;;;;;6.67;100.00;96695.06;5014083;28;20526;-60
2022/11/11 07:33:44;;;;;;;1999.90;999.90;;;;;;;6.84;100.00;96697.47;5014141;28;20210;-61
2022/11/11 07:36:09;;;;;;;1999.90;999.90;;;;;;;6.89;100.00;96713.53;5013937;28;20173;-64
2022/11/11 07:38:34;;;;;;;1999.90;999.90;;;;;;;6.90;100.00;96725.97;5014034;28;20177;-61
2022/11/11 07:41:00;;;;;;;1999.90;999.90;;;;;;;6.97;100.00;96728.88;5013736;28;20642;-61
2022/11/11 07:43:25;;;;;;;1999.90;999.90;;;;;;;7.07;100.00;96736.53;5013657;28;20231;-58
2022/11/11 07:45:50;;;;;;;1999.90;999.90;;;;;;;7.16;100.00;96739.84;5013958;28;20237;-58
2022/11/11 07:48:16;;;;;;;1999.90;999.90;;;;;;;7.12;100.00;96749.84;5013623;28;20216;-58
2022/11/11 07:50:41;;;;;;;1999.90;999.90;;;;;;;7.20;100.00;96759.75;5013646;28;20181;-58
2022/11/11 07:53:06;;;;;;;1999.90;999.90;;;;;;;7.41;100.00;96752.16;5013526;28;20236;-57
2022/11/11 07:55:32;;;;;;;1999.90;999.90;;;;;;;7.47;100.00;96777.91;5013254;28;20178;-57
2022/11/11 07:57:57;;;;;;;1999.90;999.90;;;;;;;7.88;100.00;96777.44;5013606;28;20178;-57
2022/11/11 08:00:23;;;;;;;1999.90;999.90;;;;;;;8.17;100.00;96789.78;5013412;28;20222;-57
2022/11/11 08:02:48;;;;;;;1999.90;999.90;;;;;;;8.81;100.00;96790.06;5017436;28;20329;-51
2022/11/11 08:05:14;;;;;;;1999.90;999.90;;;;;;;9.12;100.00;96804.38;5017088;28;20195;-58
2022/11/11 08:07:41;;;;;;;1999.90;999.90;;;;;;;9.39;100.00;96825.16;5017759;28;20274;-58
2022/11/11 08:10:07;;;;;;;1999.90;999.90;;;;;;;9.40;100.00;96839.59;5017273;28;20176;-58
2022/11/11 08:15:17;;;;;;;1999.90;999.90;;;;;;;9.08;100.00;96852.56;5018244;28;20310;-58
2022/11/11 08:17:42;;;;;;;1999.90;999.90;;;;;;;9.00;100.00;96856.28;5016659;28;20202;-59
2022/11/11 08:20:08;;;;;;;1999.90;999.90;;;;;;;9.08;100.00;96852.56;5017475;28;20182;-60
2022/11/11 08:22:36;;;;;;;1999.90;999.90;;;;;;;9.46;100.00;96846.31;5017053;28;20183;-60
2022/11/11 08:25:01;;;;;;;1999.90;999.90;;;;;;;9.63;100.00;96846.69;5017481;28;20266;-58
2022/11/11 08:27:26;;;;;;;1999.90;999.90;;;;;;;9.98;100.00;96849.22;5017636;28;20203;-58
2022/11/11 08:29:52;;;;;;;1999.90;999.90;;;;;;;10.31;100.00;96845.94;5017350;28;20206;-58
2022/11/11 08:32:17;;;;;;;1999.90;999.90;;;;;;;10.43;100.00;96856.66;5016951;28;20192;-58
2022/11/11 08:34:42;;;;;;;1999.90;999.90;;;;;;;10.58;100.00;96855.72;5016690;28;20176;-58
2022/11/11 08:37:08;;;;;;;1999.90;999.90;;;;;;;10.50;100.00;96856.78;5016645;28;20201;-58
2022/11/11 08:39:33;;;;;;;1999.90;999.90;;;;;;;10.75;100.00;96857.94;5017155;28;20182;-53
2022/11/11 08:41:58;;;;;;;1999.90;999.90;;;;;;;10.69;100.00;96851.22;5016550;28;20172;-60
2022/11/11 08:44:24;;;;;;;1999.90;999.90;;;;;;;10.93;100.00;96854.28;5016563;28;20189;-59
2022/11/11 08:46:49;;;;;;;1999.90;999.90;;;;;;;11.09;100.00;96854.13;5016061;28;20267;-59
2022/11/11 08:49:15;;;;;;;1999.90;999.90;;;;;;;11.30;100.00;96857.16;5016826;28;20187;-59
2022/11/11 08:51:40;;;;;;;1999.90;999.90;;;;;;;11.53;100.00;96850.41;5016938;28;20178;-59
2022/11/11 08:54:05;;;;;;;1999.90;999.90;;;;;;;11.98;100.00;96860.31;5016406;28;20210;-59
2022/11/11 08:56:31;;;;;;;1999.90;999.90;;;;;;;12.53;100.00;96862.78;5016783;28;20266;-57
2022/11/11 08:58:56;;;;;;;1999.90;999.90;;;;;;;12.86;100.00;96861.84;5016868;28;20179;-57
2022/11/11 09:01:21;;;;;;;1999.90;999.90;;;;;;;12.97;100.00;96873.69;5015818;28;20234;-57
2022/11/11 09:03:47;;;;;;;1999.90;999.90;;;;;;;13.38;100.00;96866.88;5016455;28;20195;-57
2022/11/11 09:06:12;;;;;;;1999.90;999.90;;;;;;;13.30;100.00;96870.78;5015947;28;20176;-55
2022/11/11 09:08:40;;;;;;;1999.90;999.90;;;;;;;13.37;100.00;96856.28;5016723;28;20183;-55
2022/11/11 09:11:06;;;;;;;1999.90;999.90;;;;;;;13.68;100.00;96864.66;5016443;28;20535;-57
2022/11/11 09:13:33;;;;;;;1999.90;999.90;;;;;;;13.87;100.00;96871.78;5015807;28;20215;-61
2022/11/11 09:15:59;;;;;;;1999.90;999.90;;;;;;;14.02;100.00;96878.91;5016046;28;20183;-61
2022/11/11 09:18:25;;;;;;;1999.90;999.90;;;;;;;14.22;100.00;96878.19;5015741;28;20175;-61
2022/11/11 09:20:50;;;;;;;1999.90;999.90;;;;;;;14.52;100.00;96886.84;5016907;28;20512;-60
2022/11/11 09:23:16;;;;;;;1999.90;999.90;;;;;;;14.10;100.00;96870.28;5015673;28;20242;-61
2022/11/11 09:25:41;;;;;;;1999.90;999.90;;;;;;;13.84;100.00;96878.81;5016295;28;20189;-61
2022/11/11 09:28:06;;;;;;;1999.90;999.90;;;;;;;14.05;100.00;96878.09;5015717;28;20176;-61
2022/11/11 09:30:32;;;;;;;1999.90;999.90;;;;;;;13.73;100.00;96878.00;5015439;28;20179;-61
2022/11/11 09:33:01;;;;;;;1999.90;999.90;;;;;;;13.85;100.00;96880.41;5015683;28;20302;-62
2022/11/11 09:35:27;;;;;;;1999.90;999.90;;;;;;;14.00;100.00;96884.78;5015693;28;20183;-60
2022/11/11 09:37:54;;;;;;;1999.90;999.90;;;;;;;13.72;100.00;96890.16;5015617;28;20218;-60
2022/11/11 09:40:23;;;;;;;1999.90;999.90;;;;;;;13.61;100.00;96889.34;5015081;28;20194;-60
2022/11/11 09:43:15;;;;;;;1999.90;999.90;;;;;;;13.75;100.00;96897.63;5015944;28;20185;-59
2022/11/11 09:45:59;;;;;;;1999.90;999.90;;;;;;;13.66;100.00;96888.94;5015727;28;20633;-60
2022/11/11 09:48:43;;;;;;;1999.90;999.90;;;;;;;13.51;100.00;96881.84;5015578;28;20179;-60
2022/11/11 09:51:17;;;;;;;1999.90;999.90;;;;;;;14.12;100.00;96889.91;5016220;28;20237;-63
2022/11/11 09:53:49;;;;;;;1999.90;999.90;;;;;;;14.38;100.00;96886.84;5015035;28;20207;-59
2022/11/11 09:56:18;;;;;;;1999.90;999.90;;;;;;;14.76;100.00;96886.09;5015861;28;20171;-59
2022/11/11 09:58:48;;;;;;;1999.90;999.90;;;;;;;15.08;100.00;96886.81;5015872;28;20225;-59
2022/11/11 10:01:23;;;;;;;1999.90;999.90;;;;;;;14.90;100.00;96886.06;5015182;28;20219;-59
2022/11/11 10:04:14;;;;;;;1999.90;999.90;;;;;;;14.59;100.00;96891.56;5015095;28;20285;-59
2022/11/11 10:06:40;;;;;;;1999.90;999.90;;;;;;;14.47;100.00;96901.00;5015688;28;20259;-59
2022/11/11 10:09:18;;;;;;;1999.90;999.90;;;;;;;14.34;100.00;96896.25;5015105;28;20616;-59
2022/11/11 10:12:13;;;;;;;1999.90;999.90;;;;;;;14.27;100.00;96908.03;5015514;28;20167;-59
2022/11/11 10:14:44;;;;;;;1999.90;999.90;;;;;;;14.40;100.00;96900.19;5014907;28;20246;-60
2022/11/11 10:17:34;;;;;;;1999.90;999.90;;;;;;;14.68;100.00;96906.50;5015483;28;20168;-60
2022/11/11 10:20:19;;;;;;;1999.90;999.90;;;;;;;14.88;100.00;96896.69;5015378;28;20317;-60
2022/11/11 10:22:50;;;;;;;1999.90;999.90;;;;;;;14.78;100.00;96896.66;5007447;28;20191;-60
2022/11/11 10:25:23;;;;;;;1999.90;999.90;;;;;;;15.14;100.00;96890.75;5014577;28;20175;-60
2022/11/11 10:27:53;;;;;;;1999.90;999.90;;;;;;;15.42;100.00;96881.69;5015195;28;20180;-59
2022/11/11 10:30:23;;;;;;;1999.90;999.90;;;;;;;15.61;100.00;96876.50;5014386;28;20282;-58
2022/11/11 10:32:56;;;;;;;1999.90;999.90;;;;;;;15.78;100.00;96875.63;5014314;28;20237;-56
2022/11/11 10:35:24;;;;;;;1999.90;999.90;;;;;;;15.90;100.00;96875.19;5014361;28;20353;-56
2022/11/11 10:38:10;;;;;;;1999.90;999.90;;;;;;;16.04;100.00;96880.66;5014434;28;20178;-57
2022/11/11 10:40:48;;;;;;;1999.90;999.90;;;;;;;16.12;100.00;96879.41;4994507;28;20641;-56
2022/11/11 10:43:26;;;;;;;1999.90;999.90;;;;;;;15.96;100.00;96883.84;5014306;28;20178;-56
2022/11/11 10:46:05;;;;;;;1999.90;999.90;;;;;;;15.69;100.00;96885.50;5014545;28;20181;-60
2022/11/11 10:48:33;;;;;;;1999.90;999.90;;;;;;;15.80;100.00;96883.50;5014337;28;20179;-59
2022/11/11 10:51:01;;;;;;;1999.90;999.90;;;;;;;15.78;100.00;96878.38;5013897;28;20277;-58
2022/11/11 10:53:48;;;;;;;1999.90;999.90;;;;;;;15.52;100.00;96878.88;5014002;28;20234;-60
2022/11/11 10:56:36;;;;;;;1999.90;999.90;;;;;;;15.35;100.00;96878.91;5014599;28;20183;-59
2022/11/11 10:59:34;;;;;;;1999.90;999.90;;;;;;;15.29;100.00;96875.78;5014699;28;20203;-60
2022/11/11 11:02:07;;;;;;;1999.90;999.90;;;;;;;15.29;100.00;96875.78;5006354;28;20206;-60
2022/11/11 11:04:46;;;;;;;1999.90;999.90;;;;;;;15.07;100.00;96890.75;5014253;28;20206;-60
2022/11/11 11:07:18;;;;;;;1999.90;999.90;;;;;;;15.09;100.00;96891.16;5014148;28;20629;-55
2022/11/11 11:09:54;;;;;;;1999.90;999.90;;;;;;;14.71;100.00;96894.72;5014530;28;20167;-55
2022/11/11 11:12:34;;;;;;;1999.90;999.90;;;;;;;14.56;100.00;96904.13;5014295;28;20298;-55
2022/11/11 11:15:12;;;;;;;1999.90;999.90;;;;;;;14.41;100.00;96902.56;5014372;28;20206;-56
2022/11/11 11:17:47;;;;;;;1999.90;999.90;;;;;;;14.40;100.00;96898.25;5014520;28;20270;-54
2022/11/11 11:20:15;;;;;;;1999.90;999.90;;;;;;;14.32;100.00;96893.91;5013863;28;20183;-54
2022/11/11 11:22:45;;;;;;;1999.90;999.90;;;;;;;14.50;100.00;96904.94;5014383;28;20185;-58
2022/11/11 11:25:11;;;;;;;1999.90;999.90;;;;;;;14.56;100.00;96897.84;5013505;28;20175;-60
2022/11/11 11:27:36;;;;;;;1999.90;999.90;;;;;;;14.34;100.00;96891.53;5013689;28;20237;-58
2022/11/11 11:30:13;;;;;;;1999.90;999.90;;;;;;;14.47;100.00;96890.00;5013535;28;20189;-58
2022/11/11 11:32:41;;;;;;;1999.90;999.90;;;;;;;14.47;100.00;96884.50;5014088;28;20194;-59
2022/11/11 11:35:07;;;;;;;1999.90;999.90;;;;;;;14.63;100.00;96890.41;5014576;28;20171;-58
2022/11/11 11:37:48;;;;;;;1999.90;999.90;;;;;;;14.72;100.00;96879.78;5017735;28;20179;-59
2022/11/11 11:40:14;;;;;;;1999.90;999.90;;;;;;;14.79;100.00;96879.78;5018238;28;20220;-58
2022/11/11 11:42:39;;;;;;;1999.90;999.90;;;;;;;14.66;100.00;96880.56;5018256;28;20186;-57
2022/11/11 11:45:15;;;;;;;1999.90;999.90;;;;;;;14.55;100.00;96879.78;5017568;28;20534;-59
2022/11/11 11:47:49;;;;;;;1999.90;999.90;;;;;;;14.86;100.00;96868.78;5018028;28;20158;-60
2022/11/11 11:50:51;;;;;;;1999.90;999.90;;;;;;;14.72;100.00;96868.78;5018526;28;20182;-59
2022/11/11 11:54:07;;;;;;;1999.90;999.90;;;;;;;14.70;100.00;96865.66;5010864;28;20214;-59
2022/11/11 11:56:40;;;;;;;1999.90;999.90;;;;;;;14.74;100.00;96863.69;5000467;28;20249;-59
2022/11/11 11:59:35;;;;;;;1999.90;999.90;;;;;;;14.95;100.00;96866.41;5017030;28;20171;-59
2022/11/11 12:02:32;;;;;;;1999.90;999.90;;;;;;;14.78;100.00;96855.41;5017566;28;20190;-61
2022/11/11 12:05:07;;;;;;;1999.90;999.90;;;;;;;14.46;100.00;96854.66;5017054;28;20195;-56
2022/11/11 12:08:09;;;;;;;1999.90;999.90;;;;;;;14.55;100.00;96844.84;5016963;28;20182;-55
2022/11/11 12:10:47;;;;;;;1999.90;999.90;;;;;;;14.41;100.00;96853.06;5017163;28;20547;-52
2022/11/11 12:13:40;;;;;;;1999.90;999.90;;;;;;;14.21;100.00;96854.59;5017459;28;20218;-53
2022/11/11 12:16:24;;;;;;;1999.90;999.90;;;;;;;14.15;100.00;96855.34;5017500;28;20168;-52
2022/11/11 12:19:00;;;;;;;1999.90;999.90;;;;;;;14.05;100.00;96867.91;5017156;28;20187;-59
2022/11/11 12:21:32;;;;;;;1999.90;999.90;;;;;;;13.98;100.00;96884.38;5016977;28;20175;-59
2022/11/11 12:24:41;;;;;;;1999.90;999.90;;;;;;;13.81;100.00;96876.06;5017381;28;20186;-59